Sunday, February 1, 2015, 5:42 PM EST

KSBY, Salisbury-wicomico Cty Reg

Location: Salisbury, MD, United States Lat: 38.333
Local Time: 5:42 PM EST (22:42 GMT) Lon: -75.5
Time Zone: US/Eastern Elev: 52 ft

Show me the last for .
Show Decoded

2015-02-01 16:54 METAR KSBY 012154Z 15007KT 10SM CLR 05/M06 A3014 RMK AO2 SLP209 T00501056 =
2015-02-01 15:54 METAR KSBY 012054Z 16007KT 10SM BKN095 OVC120 07/M07 A3015 =
2015-02-01 14:54 METAR KSBY 011954Z 16007KT 10SM BKN040 BKN100 08/M08 A3016 RMK AO2 SLP214
                 T00781078 =
2015-02-01 13:54 METAR KSBY 011854Z 14006KT 10SM BKN042 09/M08 A3018 RMK AO2 SLP222 T00891078 =
2015-02-01 12:54 METAR KSBY 011754Z 21004KT 10SM OVC042 07/M08 A3021 RMK AO2 SLP234 T00671083
                 10072 21067 58028 =
2015-02-01 11:54 METAR KSBY 011654Z 17004KT 10SM FEW044 OVC060 07/M09 A3024 RMK AO2 SLP244
                 T00671094 =
2015-02-01 10:54 METAR KSBY 011554Z VRB04KT 10SM SCT070 05/M09 A3027 RMK AO2 SLP253 T00501094 =
2015-02-01 09:54 METAR KSBY 011454Z 18003KT 10SM OVC075 02/M09 A3030 RMK AO2 SLP262 T00171089
                 58000 =
2015-02-01 08:54 METAR KSBY 011354Z 19004KT 10SM OVC085 M01/M08 A3030 RMK AO2 SLP264 T10111078 =
2015-02-01 07:54 METAR KSBY 011254Z 20004KT 10SM BKN100 M04/M08 A3031 RMK AO2 SLP266 T10441083 =
2015-02-01 06:54 METAR KSBY 011154Z 00000KT 10SM CLR M06/M09 A3030 RMK AO2 SLP262 T10611094 11056
                 21083 53004 =
2015-02-01 05:54 METAR KSBY 011054Z 00000KT 10SM CLR M07/M10 A3029 =
2015-02-01 04:54 METAR KSBY 010954Z AUTO 00000KT 10SM CLR M07/M11 A3028 RMK AO2 SLP258 T10721111
                 =
2015-02-01 03:54 METAR KSBY 010854Z AUTO 00000KT 10SM CLR M08/M12 A3029 RMK AO2 SLP258 T10781117
                 50001 =
2015-02-01 02:54 METAR KSBY 010754Z AUTO 00000KT 10SM CLR M08/M12 A3029 RMK AO2 SLP260 T10781117
                 =
2015-02-01 01:54 METAR KSBY 010654Z AUTO 00000KT 10SM CLR M07/M12 A3029 RMK AO2 SLP259 T10671117
                 =
2015-02-01 00:54 METAR KSBY 010554Z AUTO 00000KT 10SM CLR M07/M11 A3028 RMK AO2 SLP257 T10721111
                 11011 21072 55001 =
2015-01-31 23:54 METAR KSBY 010454Z AUTO 00000KT 10SM CLR M07/M12 A3028 RMK AO2 SLP256 T10671117
                 400111072 =
2015-01-31 22:54 METAR KSBY 010354Z AUTO 00000KT 10SM CLR M07/M11 A3028 RMK AO2 SLP257 T10671111
                 =
2015-01-31 21:54 METAR KSBY 010254Z 00000KT 10SM CLR M06/M12 A3029 =
2015-01-31 20:54 METAR KSBY 010154Z AUTO 00000KT 10SM CLR M05/M11 A3029 RMK AO2 SLP261 T10501111
                 =
2015-01-31 19:54 METAR KSBY 010054Z 00000KT 10SM CLR M02/M13 A3029 RMK AO2 SLP261 T10221133 =
2015-01-31 18:54 METAR KSBY 312354Z 27004KT 10SM CLR M01/M13 A3028 RMK AO2 SLP258 T10111133 10011
                 21011 53017 =
2015-01-31 17:54 METAR KSBY 312254Z 30007KT 10SM CLR M01/M14 A3027 RMK AO2 SLP254 T10061139 =

Support USWX by starting your Amazon purchase here.